METAR Formatted Surface Weather Observation
Issued by NWS

Home | Current Version | Previous Version | Text Only | Print | Product List | Glossary On
Versions: 1 2 3 4 5 6
000
SAUS41 KPHI 210204
MTRNEL
METAR KNEL 210200Z AUTO 00000KT 8SM OVC020 18/17 A3008 RMK AO2
SLP183 T01830172



USA.gov is the U.S. government's official web portal to all federal, state and local government web resources and services.